createdAt,value
2022-10-15T00:02:01.206Z,9.14
2022-10-15T00:04:31.235Z,9.17
2022-10-15T00:07:02.201Z,9.20
2022-10-15T00:09:31.470Z,9.25
2022-10-15T00:12:02.332Z,9.25
2022-10-15T00:14:33.463Z,9.28
2022-10-15T00:17:04.943Z,9.34
2022-10-15T00:19:34.246Z,9.39
2022-10-15T00:22:05.238Z,9.45
2022-10-15T00:24:34.508Z,9.53
2022-10-15T00:27:05.611Z,9.56
2022-10-15T00:29:36.731Z,9.63
2022-10-15T00:32:08.086Z,9.69
2022-10-15T00:34:39.015Z,9.75
2022-10-15T00:37:10.359Z,9.80
2022-10-15T00:39:41.392Z,9.84
2022-10-15T00:42:13.822Z,9.90
2022-10-15T00:44:54.180Z,9.93
2022-10-15T00:47:31.028Z,9.97
2022-10-15T00:50:08.283Z,9.99
2022-10-15T00:52:45.650Z,10.00
2022-10-15T00:55:20.390Z,10.01
2022-10-15T00:57:52.557Z,10.03
2022-10-15T01:00:24.050Z,10.03
2022-10-15T01:02:55.168Z,10.05
2022-10-15T01:05:27.032Z,10.07
2022-10-15T01:07:58.151Z,10.10
2022-10-15T01:10:36.271Z,10.12
2022-10-15T01:13:15.885Z,10.14
2022-10-15T01:15:52.135Z,10.15
2022-10-15T01:18:28.041Z,10.16
2022-10-15T01:21:08.123Z,10.17
2022-10-15T01:24:29.788Z,10.18
2022-10-15T01:27:20.216Z,10.20
2022-10-15T01:30:24.499Z,10.21
2022-10-15T01:33:11.670Z,10.22
2022-10-15T01:35:50.382Z,10.25
2022-10-15T01:38:36.693Z,10.26
2022-10-15T01:41:15.311Z,10.28
2022-10-15T01:43:52.811Z,10.31
2022-10-15T01:46:28.482Z,10.33
2022-10-15T01:49:02.973Z,10.33
2022-10-15T01:51:35.805Z,10.32
2022-10-15T01:54:12.192Z,10.34
2022-10-15T01:56:49.595Z,10.36
2022-10-15T01:59:23.814Z,10.37
2022-10-15T02:01:57.555Z,10.36
2022-10-15T02:04:31.642Z,10.36
2022-10-15T02:07:07.350Z,10.35
2022-10-15T02:09:49.900Z,10.35
2022-10-15T02:12:42.053Z,10.37
2022-10-15T02:15:18.857Z,10.38
2022-10-15T02:18:02.321Z,10.38
2022-10-15T02:20:41.588Z,10.38
2022-10-15T02:23:19.201Z,10.39
2022-10-15T02:25:53.015Z,10.41
2022-10-15T02:28:26.906Z,10.42
2022-10-15T02:31:00.235Z,10.41
2022-10-15T02:33:33.198Z,10.41
2022-10-15T02:36:04.331Z,10.40
2022-10-15T02:38:36.429Z,10.39
2022-10-15T02:41:08.277Z,10.40
2022-10-15T02:43:40.999Z,10.41
2022-10-15T02:46:14.595Z,10.41
2022-10-15T02:48:45.514Z,10.42
2022-10-15T02:51:14.869Z,10.43
2022-10-15T02:53:45.811Z,10.41
2022-10-15T02:56:15.094Z,10.38
2022-10-15T02:58:46.084Z,10.36
2022-10-15T03:01:15.333Z,10.38
2022-10-15T03:03:46.298Z,10.37
2022-10-15T03:06:17.733Z,10.38
2022-10-15T03:08:48.689Z,10.41
2022-10-15T03:11:19.800Z,10.42
2022-10-15T03:13:50.938Z,10.41
2022-10-15T03:16:22.066Z,10.41
2022-10-15T03:18:53.039Z,10.42
2022-10-15T03:21:23.869Z,10.44
2022-10-15T03:23:54.846Z,10.45
2022-10-15T03:26:24.468Z,10.45
2022-10-15T03:28:53.847Z,10.43
2022-10-15T03:31:23.348Z,10.41
2022-10-15T03:33:54.240Z,10.41
2022-10-15T03:36:23.516Z,10.42
2022-10-15T03:38:54.465Z,10.41
2022-10-15T03:41:25.352Z,10.41
2022-10-15T03:43:56.292Z,10.42
2022-10-15T03:46:27.042Z,10.43
2022-10-15T03:48:58.084Z,10.44
2022-10-15T03:51:31.402Z,10.46
2022-10-15T03:54:02.721Z,10.48
2022-10-15T03:56:33.840Z,10.49
2022-10-15T03:59:04.931Z,10.50
2022-10-15T04:01:34.240Z,10.51
2022-10-15T04:04:05.297Z,10.51
2022-10-15T04:06:36.000Z,10.53
2022-10-15T04:09:07.201Z,10.54
2022-10-15T04:11:38.252Z,10.54
2022-10-15T04:14:09.443Z,10.56
2022-10-15T04:16:40.587Z,10.55
2022-10-15T04:19:11.607Z,10.60
2022-10-15T04:21:42.476Z,10.62
2022-10-15T04:24:11.898Z,10.64
2022-10-15T04:26:43.210Z,10.65
2022-10-15T04:29:14.450Z,10.66
2022-10-15T04:31:43.637Z,10.72
2022-10-15T04:34:14.595Z,10.74
2022-10-15T04:36:45.488Z,10.78
2022-10-15T04:39:16.203Z,10.84
2022-10-15T04:41:45.542Z,10.89
2022-10-15T04:44:16.619Z,10.93
2022-10-15T04:46:47.819Z,10.98
2022-10-15T04:49:18.651Z,11.02
2022-10-15T04:51:48.030Z,11.05
2022-10-15T04:54:19.153Z,11.07
2022-10-15T04:56:50.261Z,11.10
2022-10-15T04:59:21.276Z,11.12
2022-10-15T05:01:52.335Z,11.15
2022-10-15T05:04:23.243Z,11.19
2022-10-15T05:06:54.743Z,11.21
2022-10-15T05:09:25.619Z,11.24
2022-10-15T05:11:56.594Z,11.27
2022-10-15T05:14:28.291Z,11.30
2022-10-15T05:16:59.072Z,11.33
2022-10-15T05:19:30.272Z,11.36
2022-10-15T05:22:01.383Z,11.39
2022-10-15T05:24:32.291Z,11.40
2022-10-15T05:27:03.355Z,11.42
2022-10-15T05:29:34.364Z,11.45
2022-10-15T05:32:05.684Z,11.47
2022-10-15T05:34:36.847Z,11.48
2022-10-15T05:37:09.540Z,11.50
2022-10-15T05:39:40.489Z,11.52
2022-10-15T05:42:12.373Z,11.53
2022-10-15T05:44:43.251Z,11.54
2022-10-15T05:47:14.300Z,11.55
2022-10-15T05:49:45.155Z,11.55
2022-10-15T05:52:16.990Z,11.56
2022-10-15T05:54:47.961Z,11.56
2022-10-15T05:57:18.824Z,11.56
2022-10-15T05:59:49.539Z,11.55
2022-10-15T06:02:20.664Z,11.55
2022-10-15T06:04:53.421Z,11.54
2022-10-15T06:07:24.636Z,11.53
2022-10-15T06:09:55.707Z,11.51
2022-10-15T06:12:26.749Z,11.49
2022-10-15T06:14:57.618Z,11.47
2022-10-15T06:17:26.915Z,11.47
2022-10-15T06:19:57.745Z,11.43
2022-10-15T06:22:31.348Z,11.41
2022-10-15T06:25:02.360Z,11.40
2022-10-15T06:27:33.727Z,11.38
2022-10-15T06:30:05.052Z,11.37
2022-10-15T06:32:36.332Z,11.38
2022-10-15T06:35:08.556Z,11.38
2022-10-15T06:37:39.728Z,11.39
2022-10-15T06:40:13.678Z,11.38
2022-10-15T06:42:44.853Z,11.37
2022-10-15T06:45:18.204Z,11.37
2022-10-15T06:47:53.182Z,11.40
2022-10-15T06:50:24.305Z,11.40
2022-10-15T06:52:55.288Z,11.41
2022-10-15T06:55:26.355Z,11.41
2022-10-15T06:57:57.809Z,11.40
2022-10-15T07:00:29.384Z,11.39
2022-10-15T07:03:06.071Z,11.40
2022-10-15T07:05:37.020Z,11.41
2022-10-15T07:08:08.155Z,11.41
2022-10-15T07:10:38.892Z,11.42
2022-10-15T07:13:11.996Z,11.44
2022-10-15T07:15:44.701Z,11.44
2022-10-15T07:18:15.461Z,11.46
2022-10-15T07:20:44.822Z,11.47
2022-10-15T07:23:15.772Z,11.46
2022-10-15T07:25:46.827Z,11.48
2022-10-15T07:28:17.889Z,11.49
2022-10-15T07:30:48.794Z,11.52
2022-10-15T07:33:17.974Z,11.52
2022-10-15T07:35:49.393Z,11.48
2022-10-15T07:38:19.047Z,11.50
2022-10-15T07:40:50.221Z,11.50
2022-10-15T07:43:21.201Z,11.51
2022-10-15T07:45:52.239Z,11.55
2022-10-15T07:48:21.467Z,11.59
2022-10-15T07:50:56.981Z,11.58
2022-10-15T07:53:28.771Z,11.61
2022-10-15T07:56:03.549Z,11.63
2022-10-15T07:58:34.776Z,11.67
2022-10-15T08:01:06.945Z,11.69
2022-10-15T08:03:38.394Z,11.69
2022-10-15T08:06:10.007Z,11.70
2022-10-15T08:08:41.211Z,11.71
2022-10-15T08:11:14.549Z,11.73
2022-10-15T08:13:47.264Z,11.75
2022-10-15T08:16:20.287Z,11.78
2022-10-15T08:21:23.127Z,11.90
2022-10-15T08:23:54.128Z,11.95
2022-10-15T08:26:26.634Z,11.98
2022-10-15T08:28:57.505Z,11.99
2022-10-15T08:31:28.492Z,12.01
2022-10-15T08:34:00.335Z,12.04
2022-10-15T08:36:31.428Z,12.09
2022-10-15T08:39:02.654Z,12.13
2022-10-15T08:41:41.569Z,12.16
2022-10-15T08:44:19.355Z,12.18
2022-10-15T08:46:53.804Z,12.22
2022-10-15T08:49:33.180Z,12.24
2022-10-15T08:52:09.934Z,12.26
2022-10-15T08:54:39.598Z,12.27
2022-10-15T08:57:23.744Z,12.28
2022-10-15T09:00:01.798Z,12.31
2022-10-15T09:02:40.552Z,12.37
2022-10-15T09:05:27.185Z,12.41
2022-10-15T09:08:05.087Z,12.45
2022-10-15T09:10:41.927Z,12.50
2022-10-15T09:13:16.772Z,12.53
2022-10-15T09:15:52.795Z,12.54
2022-10-15T09:18:29.383Z,12.54
2022-10-15T09:21:02.311Z,12.53
2022-10-15T09:23:36.040Z,12.53
2022-10-15T09:26:16.120Z,12.53
2022-10-15T09:28:53.354Z,12.55
2022-10-15T09:31:30.507Z,12.56
2022-10-15T09:34:06.590Z,12.57
2022-10-15T09:36:44.652Z,12.59
2022-10-15T09:39:36.868Z,12.61
2022-10-15T09:42:20.822Z,12.62
2022-10-15T09:44:53.112Z,12.61
2022-10-15T09:47:28.367Z,12.62
2022-10-15T09:50:00.022Z,12.60
2022-10-15T09:52:51.542Z,12.62
2022-10-15T09:55:34.282Z,12.66
2022-10-15T09:58:08.585Z,12.65
2022-10-15T10:00:58.526Z,12.67
2022-10-15T10:03:30.971Z,12.71
2022-10-15T10:06:05.546Z,12.74
2022-10-15T10:08:39.667Z,12.74
2022-10-15T10:11:12.982Z,12.76
2022-10-15T10:13:51.305Z,12.78
2022-10-15T10:16:22.894Z,12.86
2022-10-15T10:19:13.650Z,13.00
2022-10-15T10:21:46.725Z,13.10
2022-10-15T10:24:30.739Z,13.22
2022-10-15T10:29:40.798Z,13.56
2022-10-15T10:32:21.647Z,13.71
2022-10-15T10:34:53.602Z,13.85
2022-10-15T10:37:25.868Z,13.94
2022-10-15T10:39:59.964Z,14.01
2022-10-15T10:42:38.388Z,14.03
2022-10-15T10:45:21.507Z,14.07
2022-10-15T10:47:52.350Z,14.08
2022-10-15T10:50:33.291Z,14.06
2022-10-15T10:53:21.066Z,14.03
2022-10-15T10:55:53.035Z,13.98
2022-10-15T10:58:27.178Z,13.92
2022-10-15T11:01:00.477Z,13.82
2022-10-15T11:03:37.448Z,13.72
2022-10-15T11:06:37.788Z,13.65
2022-10-15T11:09:18.096Z,13.59
2022-10-15T11:12:01.790Z,13.54
2022-10-15T11:14:41.003Z,13.49
2022-10-15T11:17:22.390Z,13.48
2022-10-15T11:20:21.747Z,13.46
2022-10-15T11:23:07.856Z,13.45
2022-10-15T11:25:46.700Z,13.41
2022-10-15T11:28:28.369Z,13.38
2022-10-15T11:31:10.589Z,13.35
2022-10-15T11:34:01.209Z,13.31
2022-10-15T11:36:44.512Z,13.24
2022-10-15T11:39:31.795Z,13.19
2022-10-15T11:42:16.313Z,13.14
2022-10-15T11:45:02.030Z,13.10
2022-10-15T11:47:46.154Z,13.10
2022-10-15T11:50:32.870Z,13.10
2022-10-15T11:53:25.767Z,13.09
2022-10-15T11:56:03.776Z,13.09
2022-10-15T11:58:39.351Z,13.07
2022-10-15T12:01:16.273Z,13.04
2022-10-15T12:03:53.229Z,13.02
2022-10-15T12:06:24.036Z,13.01
2022-10-15T12:08:56.602Z,13.01
2022-10-15T12:11:40.823Z,13.04
2022-10-15T12:14:22.775Z,13.08
2022-10-15T12:17:02.960Z,13.13
2022-10-15T12:19:39.912Z,13.18
2022-10-15T12:22:12.509Z,13.23
2022-10-15T12:24:56.411Z,13.30
2022-10-15T12:27:35.603Z,13.34
2022-10-15T12:30:27.983Z,13.34
2022-10-15T12:32:58.923Z,13.33
2022-10-15T12:35:39.573Z,13.35
2022-10-15T12:38:23.378Z,13.38
2022-10-15T12:41:03.440Z,13.40
2022-10-15T12:43:38.072Z,13.39
2022-10-15T12:46:11.589Z,13.35
2022-10-15T12:48:44.838Z,13.34
2022-10-15T12:51:33.432Z,13.31
2022-10-15T12:54:25.669Z,13.30
2022-10-15T12:56:56.994Z,13.34
2022-10-15T12:59:58.217Z,13.39
2022-10-15T13:02:44.895Z,13.45
2022-10-15T13:05:30.533Z,13.47
2022-10-15T13:08:03.840Z,13.46
2022-10-15T13:10:39.003Z,13.44
2022-10-15T13:13:17.797Z,13.46
2022-10-15T13:15:58.078Z,13.46
2022-10-15T13:18:30.630Z,13.44
2022-10-15T13:23:45.710Z,13.38
2022-10-15T13:26:21.909Z,13.34
2022-10-15T13:28:55.206Z,13.32
2022-10-15T13:31:30.626Z,13.30
2022-10-15T13:34:09.775Z,13.28
2022-10-15T13:36:41.634Z,13.28
2022-10-15T13:39:30.916Z,13.25
2022-10-15T13:42:09.083Z,13.20
2022-10-15T13:44:41.022Z,13.14
2022-10-15T13:47:29.687Z,13.13
2022-10-15T13:50:20.792Z,13.12
2022-10-15T13:52:54.081Z,13.10
2022-10-15T13:55:28.508Z,13.11
2022-10-15T13:58:04.429Z,13.10
2022-10-15T14:00:37.934Z,13.09
2022-10-15T14:03:17.307Z,13.07
2022-10-15T14:05:50.706Z,13.06
2022-10-15T14:08:24.853Z,13.05
2022-10-15T14:11:00.353Z,13.04
2022-10-15T14:13:31.691Z,13.03
2022-10-15T14:16:13.922Z,13.02
2022-10-15T14:18:49.258Z,13.00
2022-10-15T14:21:22.687Z,13.01
2022-10-15T14:23:53.482Z,13.01
2022-10-15T14:26:27.468Z,13.01
2022-10-15T14:28:58.373Z,13.01
2022-10-15T14:31:37.815Z,13.00
2022-10-15T14:34:22.201Z,12.98
2022-10-15T14:36:53.242Z,12.96
2022-10-15T14:39:32.944Z,12.96
2022-10-15T14:42:05.992Z,12.96
2022-10-15T14:44:48.453Z,12.97
2022-10-15T14:47:24.328Z,12.97
2022-10-15T14:50:00.002Z,12.97
2022-10-15T14:55:09.322Z,12.99
2022-10-15T14:57:48.186Z,12.98
2022-10-15T15:00:26.646Z,13.02
2022-10-15T15:02:59.436Z,13.03
2022-10-15T15:05:31.170Z,13.04
2022-10-15T15:08:06.380Z,13.05
2022-10-15T15:10:37.683Z,13.06
2022-10-15T15:13:12.062Z,13.07
2022-10-15T15:15:43.338Z,13.06
2022-10-15T15:18:14.384Z,13.08
2022-10-15T15:20:48.331Z,13.10
2022-10-15T15:23:22.914Z,13.11
2022-10-15T15:25:54.811Z,13.11
2022-10-15T15:28:27.181Z,13.12
2022-10-15T15:31:01.037Z,13.14
2022-10-15T15:33:32.163Z,13.16
2022-10-15T15:36:06.276Z,13.16
2022-10-15T15:38:37.179Z,13.16
2022-10-15T15:41:15.563Z,13.16
2022-10-15T15:43:47.620Z,13.15
2022-10-15T15:46:19.214Z,13.17
2022-10-15T15:48:50.231Z,13.17
2022-10-15T15:51:24.696Z,13.18
2022-10-15T15:53:56.100Z,13.19
2022-10-15T15:56:27.775Z,13.20
2022-10-15T15:58:58.604Z,13.22
2022-10-15T16:01:29.837Z,13.23
2022-10-15T16:04:00.797Z,13.25
2022-10-15T16:06:31.693Z,13.27
2022-10-15T16:09:02.732Z,13.29
2022-10-15T16:11:33.987Z,13.32
2022-10-15T16:14:09.191Z,13.34
2022-10-15T16:16:40.374Z,13.35
2022-10-15T16:19:11.714Z,13.36
2022-10-15T16:21:42.923Z,13.34
2022-10-15T16:24:14.111Z,13.33
2022-10-15T16:26:45.425Z,13.29
2022-10-15T16:29:17.047Z,13.30
2022-10-15T16:31:47.866Z,13.30
2022-10-15T16:34:18.840Z,13.33
2022-10-15T16:36:49.681Z,13.35
2022-10-15T16:39:20.838Z,13.36
2022-10-15T16:41:51.663Z,13.41
2022-10-15T16:44:22.439Z,13.42
2022-10-15T16:46:53.451Z,13.47
2022-10-15T16:49:24.363Z,13.49
2022-10-15T16:51:55.226Z,13.51
2022-10-15T16:54:26.072Z,13.49
2022-10-15T16:56:56.958Z,13.51
2022-10-15T16:59:28.059Z,13.52
2022-10-15T17:02:01.145Z,13.53
2022-10-15T17:04:32.551Z,13.52
2022-10-15T17:07:03.465Z,13.50
2022-10-15T17:09:34.453Z,13.49
2022-10-15T17:12:05.884Z,13.47
2022-10-15T17:14:37.077Z,13.47
2022-10-15T17:17:08.253Z,13.48
2022-10-15T17:19:39.236Z,13.49
2022-10-15T17:22:10.066Z,13.48
2022-10-15T17:24:41.179Z,13.49
2022-10-15T17:27:11.963Z,13.50
2022-10-15T17:29:43.527Z,13.52
2022-10-15T17:32:14.378Z,13.54
2022-10-15T17:34:45.671Z,13.57
2022-10-15T17:37:16.849Z,13.58
2022-10-15T17:39:48.279Z,13.59
2022-10-15T17:42:20.706Z,13.60
2022-10-15T17:44:51.711Z,13.59
2022-10-15T17:47:22.882Z,13.60
2022-10-15T17:49:54.391Z,13.60
2022-10-15T17:52:27.860Z,13.59
2022-10-15T17:54:58.715Z,13.60
2022-10-15T17:57:29.848Z,13.60
2022-10-15T18:00:00.667Z,13.61
2022-10-15T18:02:31.701Z,13.62
2022-10-15T18:05:02.777Z,13.61
2022-10-15T18:07:33.872Z,13.62
2022-10-15T18:10:05.031Z,13.62
2022-10-15T18:12:36.654Z,13.64
2022-10-15T18:15:09.399Z,13.65
2022-10-15T18:17:40.312Z,13.66
2022-10-15T18:20:13.597Z,13.66
2022-10-15T18:22:44.559Z,13.66
2022-10-15T18:25:15.582Z,13.65
2022-10-15T18:27:46.665Z,13.65
2022-10-15T18:30:17.758Z,13.64
2022-10-15T18:32:49.272Z,13.65
2022-10-15T18:35:21.396Z,13.65
2022-10-15T18:37:52.364Z,13.65
2022-10-15T18:40:23.087Z,13.65
2022-10-15T18:42:54.312Z,13.66
2022-10-15T18:45:25.511Z,13.66
2022-10-15T18:47:56.369Z,13.66
2022-10-15T18:50:27.510Z,13.68
2022-10-15T18:52:58.590Z,13.69
2022-10-15T18:55:29.647Z,13.71
2022-10-15T18:58:01.940Z,13.69
2022-10-15T19:00:35.187Z,13.70
2022-10-15T19:03:07.768Z,13.71
2022-10-15T19:05:40.672Z,13.71
2022-10-15T19:08:11.879Z,13.68
2022-10-15T19:10:42.993Z,13.69
2022-10-15T19:13:13.843Z,13.68
2022-10-15T19:15:44.751Z,13.67
2022-10-15T19:18:16.683Z,13.67
2022-10-15T19:20:49.034Z,13.66
2022-10-15T19:23:20.275Z,13.65
2022-10-15T19:25:51.419Z,13.65
2022-10-15T19:28:22.382Z,13.63
2022-10-15T19:30:59.855Z,13.60
2022-10-15T19:33:34.628Z,13.60
2022-10-15T19:36:06.450Z,13.57
2022-10-15T19:38:40.862Z,13.53
2022-10-15T19:41:11.771Z,13.51
2022-10-15T19:43:42.759Z,13.48
2022-10-15T19:46:12.293Z,13.48
2022-10-15T19:48:43.491Z,13.46
2022-10-15T19:51:14.628Z,13.47
2022-10-15T19:53:45.617Z,13.48
2022-10-15T19:56:16.893Z,13.49
2022-10-15T19:58:47.950Z,13.49
2022-10-15T20:01:18.912Z,13.50
2022-10-15T20:03:49.915Z,13.49
2022-10-15T20:06:21.890Z,13.49
2022-10-15T20:08:52.976Z,13.49
2022-10-15T20:11:25.028Z,13.49
2022-10-15T20:13:55.888Z,13.51
2022-10-15T20:16:30.030Z,13.51
2022-10-15T20:19:05.141Z,13.52
2022-10-15T20:21:36.204Z,13.52
2022-10-15T20:24:07.235Z,13.51
2022-10-15T20:26:38.262Z,13.51
2022-10-15T20:29:09.627Z,13.52
2022-10-15T20:31:41.598Z,13.52
2022-10-15T20:34:12.807Z,13.53
2022-10-15T20:36:43.668Z,13.54
2022-10-15T20:39:12.859Z,13.55
2022-10-15T20:41:42.212Z,13.53
2022-10-15T20:44:13.798Z,13.51
2022-10-15T20:46:48.283Z,13.51
2022-10-15T20:49:24.349Z,13.50
2022-10-15T20:51:55.340Z,13.49
2022-10-15T20:54:26.586Z,13.50
2022-10-15T20:56:58.540Z,13.50
2022-10-15T20:59:30.438Z,13.51
2022-10-15T21:02:01.467Z,13.51
2022-10-15T21:04:32.608Z,13.52
2022-10-15T21:07:03.447Z,13.53
2022-10-15T21:09:34.391Z,13.54
2022-10-15T21:12:05.953Z,13.55
2022-10-15T21:14:37.762Z,13.56
2022-10-15T21:17:09.090Z,13.56
2022-10-15T21:19:40.185Z,13.58
2022-10-15T21:22:11.387Z,13.59
2022-10-15T21:24:42.278Z,13.59
2022-10-15T21:27:13.444Z,13.59
2022-10-15T21:29:46.426Z,13.59
2022-10-15T21:32:17.955Z,13.59
2022-10-15T21:34:49.199Z,13.58
2022-10-15T21:37:20.278Z,13.58
2022-10-15T21:39:51.633Z,13.57
2022-10-15T21:42:22.582Z,13.56
2022-10-15T21:44:53.943Z,13.55
2022-10-15T21:47:26.613Z,13.54
2022-10-15T21:49:57.733Z,13.54
2022-10-15T21:52:28.648Z,13.53
2022-10-15T21:54:59.531Z,13.52
2022-10-15T21:57:30.970Z,13.50
2022-10-15T22:00:02.205Z,13.47
2022-10-15T22:02:34.270Z,13.43
2022-10-15T22:05:05.481Z,13.42
2022-10-15T22:07:40.337Z,13.37
2022-10-15T22:10:11.594Z,13.32
2022-10-15T22:12:42.535Z,13.30
2022-10-15T22:15:11.973Z,13.28
2022-10-15T22:17:43.040Z,13.25
2022-10-15T22:20:12.427Z,13.23
2022-10-15T22:22:44.298Z,13.19
2022-10-15T22:25:15.063Z,13.18
2022-10-15T22:27:46.381Z,13.17
2022-10-15T22:30:17.477Z,13.15
2022-10-15T22:32:48.417Z,13.14
2022-10-15T22:35:19.532Z,13.14
2022-10-15T22:37:50.343Z,13.14
2022-10-15T22:40:21.395Z,13.14
2022-10-15T22:42:52.167Z,13.15
2022-10-15T22:45:22.971Z,13.16
2022-10-15T22:47:54.227Z,13.17
2022-10-15T22:50:25.208Z,13.15
2022-10-15T22:52:56.042Z,13.16
2022-10-15T22:55:27.101Z,13.17
2022-10-15T22:57:58.087Z,13.17
2022-10-15T23:00:29.118Z,13.17
2022-10-15T23:03:00.054Z,13.17
2022-10-15T23:05:30.915Z,13.17
2022-10-15T23:08:01.899Z,13.16
2022-10-15T23:10:32.844Z,13.16
2022-10-15T23:13:03.742Z,13.17
2022-10-15T23:15:34.818Z,13.17
2022-10-15T23:18:05.891Z,13.17
2022-10-15T23:20:38.769Z,13.16
2022-10-15T23:23:09.782Z,13.17
2022-10-15T23:25:41.650Z,13.17
2022-10-15T23:28:12.903Z,13.17
2022-10-15T23:30:43.746Z,13.17
2022-10-15T23:33:14.621Z,13.19
2022-10-15T23:35:45.498Z,13.19
2022-10-15T23:38:17.206Z,13.19
2022-10-15T23:40:48.648Z,13.18
2022-10-15T23:43:19.735Z,13.17
2022-10-15T23:45:50.578Z,13.16
2022-10-15T23:48:21.647Z,13.14
2022-10-15T23:50:52.531Z,13.12
2022-10-15T23:53:23.611Z,13.11
2022-10-15T23:55:54.813Z,13.10
2022-10-15T23:58:25.745Z,13.11
